createdAt,value
2024-02-28T00:01:57.625Z,6.44
2024-02-28T00:07:00.602Z,6.34
2024-02-28T00:12:03.669Z,6.43
2024-02-28T00:17:08.139Z,6.50
2024-02-28T00:22:11.384Z,6.51
2024-02-28T00:27:14.141Z,6.47
2024-02-28T00:32:18.270Z,6.43
2024-02-28T00:37:21.062Z,6.44
2024-02-28T00:42:24.091Z,6.43
2024-02-28T00:47:28.310Z,6.43
2024-02-28T00:52:32.930Z,6.39
2024-02-28T00:57:36.489Z,6.36
2024-02-28T01:02:42.436Z,6.26
2024-02-28T01:07:45.334Z,6.09
2024-02-28T01:12:48.113Z,6.16
2024-02-28T01:17:52.226Z,6.18
2024-02-28T01:22:54.982Z,6.14
2024-02-28T01:27:59.029Z,6.17
2024-02-28T01:33:03.425Z,6.14
2024-02-28T01:38:06.394Z,6.20
2024-02-28T01:43:09.490Z,6.21
2024-02-28T01:48:14.302Z,6.20
2024-02-28T01:53:19.331Z,6.12
2024-02-28T01:58:23.590Z,6.00
2024-02-28T02:03:27.707Z,5.98
2024-02-28T02:08:30.526Z,6.06
2024-02-28T02:13:33.244Z,6.04
2024-02-28T02:18:37.559Z,6.01
2024-02-28T02:23:42.591Z,6.06
2024-02-28T02:28:45.423Z,6.06
2024-02-28T02:33:48.233Z,6.06
2024-02-28T02:38:52.411Z,6.13
2024-02-28T02:43:55.158Z,6.14
2024-02-28T02:48:57.954Z,6.09
2024-02-28T02:54:02.177Z,6.02
2024-02-28T02:59:04.951Z,6.01
2024-02-28T03:04:07.668Z,6.01
2024-02-28T03:09:11.776Z,6.02
2024-02-28T03:14:14.736Z,5.99
2024-02-28T03:19:17.487Z,5.99
2024-02-28T03:24:21.676Z,5.89
2024-02-28T03:29:24.405Z,5.80
2024-02-28T03:34:27.127Z,5.77
2024-02-28T03:39:31.296Z,5.84
2024-02-28T03:44:34.081Z,5.88
2024-02-28T03:49:36.911Z,5.86
2024-02-28T03:54:44.313Z,5.68
2024-02-28T03:59:47.023Z,5.47
2024-02-28T04:04:49.814Z,5.47
2024-02-28T04:09:53.954Z,5.52
2024-02-28T04:14:56.745Z,5.44
2024-02-28T04:19:59.845Z,5.43
2024-02-28T04:25:04.077Z,5.51
2024-02-28T04:30:08.922Z,5.53
2024-02-28T04:35:12.317Z,5.61
2024-02-28T04:40:16.775Z,5.62
2024-02-28T04:45:19.568Z,5.56
2024-02-28T04:50:22.374Z,5.57
2024-02-28T04:55:26.531Z,5.59
2024-02-28T05:00:29.356Z,5.57
2024-02-28T05:05:32.068Z,5.39
2024-02-28T05:10:36.297Z,5.35
2024-02-28T05:15:39.107Z,5.44
2024-02-28T05:20:41.988Z,5.39
2024-02-28T05:25:46.085Z,5.27
2024-02-28T05:30:50.972Z,5.19
2024-02-28T05:35:53.991Z,5.15
2024-02-28T05:40:58.064Z,5.15
2024-02-28T05:46:00.836Z,5.21
2024-02-28T05:51:04.170Z,5.07
2024-02-28T05:56:14.221Z,5.11
2024-02-28T06:01:18.143Z,4.99
2024-02-28T06:06:20.989Z,4.94
2024-02-28T06:11:25.279Z,4.88
2024-02-28T06:16:28.049Z,4.82
2024-02-28T06:21:31.421Z,4.75
2024-02-28T06:26:36.020Z,4.82
2024-02-28T06:31:38.762Z,4.88
2024-02-28T06:36:41.560Z,4.95
2024-02-28T06:41:45.806Z,5.07
2024-02-28T06:46:48.552Z,5.07
2024-02-28T06:51:51.305Z,4.97
2024-02-28T06:56:55.621Z,5.12
2024-02-28T07:01:58.422Z,5.13
2024-02-28T07:07:01.314Z,4.96
2024-02-28T07:12:06.298Z,4.82
2024-02-28T07:17:09.192Z,4.67
2024-02-28T07:22:12.058Z,4.85
2024-02-28T07:27:16.860Z,4.97
2024-02-28T07:32:19.661Z,5.13
2024-02-28T07:37:22.407Z,5.01
2024-02-28T07:42:27.090Z,5.07
2024-02-28T07:47:29.959Z,5.16
2024-02-28T07:52:36.038Z,5.24
2024-02-28T07:57:40.234Z,5.28
2024-02-28T08:02:43.108Z,5.26
2024-02-28T08:07:46.275Z,5.33
2024-02-28T08:12:50.409Z,5.34
2024-02-28T08:17:53.278Z,5.36
2024-02-28T08:22:58.260Z,5.38
2024-02-28T08:28:02.574Z,5.61
2024-02-28T08:33:05.951Z,5.85
2024-02-28T08:38:08.725Z,5.72
2024-02-28T08:43:12.897Z,5.82
2024-02-28T08:48:15.665Z,6.04
2024-02-28T08:53:18.452Z,6.34
2024-02-28T08:58:22.583Z,6.21
2024-02-28T09:03:25.374Z,6.63
2024-02-28T09:08:28.215Z,6.83
2024-02-28T09:13:32.326Z,6.58
2024-02-28T09:18:35.272Z,6.75
2024-02-28T09:23:38.096Z,6.95
2024-02-28T09:28:42.363Z,6.97
2024-02-28T09:33:47.591Z,7.26
2024-02-28T09:38:50.505Z,7.31
2024-02-28T09:43:55.693Z,7.02
2024-02-28T09:48:58.621Z,7.16
2024-02-28T09:54:03.499Z,7.24
2024-02-28T09:59:09.165Z,7.36
2024-02-28T10:04:13.840Z,7.62
2024-02-28T10:09:16.924Z,7.63
2024-02-28T10:14:21.305Z,7.51
2024-02-28T10:19:24.074Z,7.51
2024-02-28T10:24:27.041Z,7.81
2024-02-28T10:29:33.797Z,8.09
2024-02-28T10:34:37.029Z,8.11
2024-02-28T10:39:40.306Z,8.14
2024-02-28T10:44:44.974Z,8.24
2024-02-28T10:49:47.763Z,8.84
2024-02-28T10:54:56.883Z,9.18
2024-02-28T11:00:01.484Z,8.93
2024-02-28T11:05:04.431Z,9.00
2024-02-28T11:10:08.307Z,9.47
2024-02-28T11:15:19.279Z,10.03
2024-02-28T11:20:23.679Z,10.77
2024-02-28T11:25:26.564Z,10.85
2024-02-28T11:30:30.936Z,11.73
2024-02-28T11:35:34.099Z,13.03
2024-02-28T11:40:36.990Z,13.54
2024-02-28T11:45:44.616Z,14.45
2024-02-28T11:50:47.432Z,16.05
2024-02-28T11:55:50.542Z,17.64
2024-02-28T12:00:55.490Z,19.95
2024-02-28T12:05:58.431Z,20.46
2024-02-28T12:11:08.818Z,21.67
2024-02-28T12:16:13.160Z,22.37
2024-02-28T12:21:16.020Z,23.97
2024-02-28T12:26:19.551Z,24.35
2024-02-28T12:31:23.762Z,25.49
2024-02-28T12:36:27.804Z,26.42
2024-02-28T12:41:31.269Z,27.42
2024-02-28T12:46:35.652Z,28.29
2024-02-28T12:51:40.193Z,27.84
2024-02-28T12:56:45.048Z,28.02
2024-02-28T13:01:49.758Z,25.88
2024-02-28T13:06:52.901Z,22.30
2024-02-28T13:11:55.864Z,18.91
2024-02-28T13:17:02.673Z,17.14
2024-02-28T13:22:07.416Z,15.94
2024-02-28T13:27:10.517Z,15.78
2024-02-28T13:32:14.863Z,16.27
2024-02-28T13:37:17.883Z,17.25
2024-02-28T13:42:22.071Z,17.02
2024-02-28T13:47:26.363Z,16.35
2024-02-28T13:52:29.213Z,15.66
2024-02-28T13:57:32.058Z,15.38
2024-02-28T14:02:36.414Z,15.66
2024-02-28T14:07:40.682Z,17.63
2024-02-28T14:12:43.706Z,18.49
2024-02-28T14:17:47.952Z,16.45
2024-02-28T14:22:50.719Z,14.59
2024-02-28T14:27:53.592Z,13.69
2024-02-28T14:32:58.873Z,13.16
2024-02-28T14:38:01.734Z,12.88
2024-02-28T14:43:04.663Z,12.69
2024-02-28T14:48:09.663Z,12.57
2024-02-28T14:53:12.609Z,12.42
2024-02-28T14:58:15.434Z,12.28
2024-02-28T15:03:19.921Z,12.26
2024-02-28T15:08:22.723Z,12.44
2024-02-28T15:13:25.565Z,12.63
2024-02-28T15:18:29.811Z,12.70
2024-02-28T15:23:33.018Z,12.75
2024-02-28T15:28:35.911Z,12.91
2024-02-28T15:33:40.125Z,12.59
2024-02-28T15:38:42.950Z,12.40
2024-02-28T15:43:45.720Z,12.29
2024-02-28T15:48:50.129Z,12.25
2024-02-28T15:53:52.906Z,12.16
2024-02-28T15:58:55.862Z,12.07
2024-02-28T16:04:00.465Z,12.01
2024-02-28T16:09:05.576Z,11.43
2024-02-28T16:14:08.373Z,11.03
2024-02-28T16:19:18.641Z,10.80
2024-02-28T16:24:25.853Z,10.48
2024-02-28T16:29:28.659Z,10.23
2024-02-28T16:34:32.895Z,9.97
2024-02-28T16:39:35.765Z,9.44
2024-02-28T16:44:39.021Z,9.22
2024-02-28T16:49:43.347Z,8.99
2024-02-28T16:54:47.711Z,8.80
2024-02-28T16:59:51.319Z,8.56
2024-02-28T17:04:55.561Z,8.39
2024-02-28T17:09:59.101Z,8.10
2024-02-28T17:15:02.115Z,7.80
2024-02-28T17:20:08.448Z,7.65
2024-02-28T17:25:12.265Z,7.51
2024-02-28T17:30:15.643Z,7.35
2024-02-28T17:35:20.404Z,7.18
2024-02-28T17:40:23.160Z,6.99
2024-02-28T17:45:25.999Z,6.81
2024-02-28T17:56:26.777Z,6.54
2024-02-28T18:01:30.126Z,6.47
2024-02-28T18:06:33.110Z,6.28
2024-02-28T18:11:37.919Z,6.09
2024-02-28T18:16:40.881Z,6.06
2024-02-28T18:21:57.294Z,6.01
2024-02-28T18:27:21.231Z,5.90
2024-02-28T18:32:31.844Z,5.71
2024-02-28T18:37:34.817Z,5.55
2024-02-28T18:42:39.506Z,5.40
2024-02-28T18:47:42.578Z,5.30
2024-02-28T18:52:45.572Z,5.29
2024-02-28T18:57:50.024Z,5.17
2024-02-28T19:02:54.716Z,5.18
2024-02-28T19:07:57.513Z,5.14
2024-02-28T19:13:01.969Z,5.02
2024-02-28T19:18:05.115Z,4.78
2024-02-28T19:23:07.942Z,4.80
2024-02-28T19:28:12.238Z,4.75
2024-02-28T19:33:15.316Z,4.67
2024-02-28T19:38:18.279Z,4.66
2024-02-28T19:43:22.540Z,4.65
2024-02-28T19:48:25.413Z,4.66
2024-02-28T19:53:29.914Z,4.55
2024-02-28T19:58:35.249Z,4.46
2024-02-28T20:03:37.985Z,4.26
2024-02-28T20:08:41.031Z,4.04
2024-02-28T20:13:49.138Z,4.03
2024-02-28T20:18:52.897Z,3.98
2024-02-28T20:23:56.503Z,3.95
2024-02-28T20:29:01.122Z,3.94
2024-02-28T20:34:04.010Z,3.92
2024-02-28T20:39:10.250Z,3.88
2024-02-28T20:44:14.501Z,3.80
2024-02-28T20:49:18.084Z,3.73
2024-02-28T20:54:20.988Z,3.73
2024-02-28T20:59:27.474Z,3.74
2024-02-28T21:04:30.532Z,3.65
2024-02-28T21:09:33.799Z,3.64
2024-02-28T21:14:37.922Z,3.64
2024-02-28T21:19:41.106Z,3.56
2024-02-28T21:24:43.950Z,3.50
2024-02-28T21:29:48.238Z,3.43
2024-02-28T21:34:51.334Z,3.48
2024-02-28T21:39:54.482Z,3.50
2024-02-28T21:44:58.948Z,3.47
2024-02-28T21:50:01.879Z,3.53
2024-02-28T21:55:05.992Z,3.55
2024-02-28T22:00:13.432Z,3.48
2024-02-28T22:05:16.421Z,3.33
2024-02-28T22:10:19.444Z,3.34
2024-02-28T22:15:25.246Z,3.34
2024-02-28T22:20:28.062Z,3.26
2024-02-28T22:25:30.831Z,3.26
2024-02-28T22:30:34.954Z,3.32
2024-02-28T22:35:37.904Z,3.38
2024-02-28T22:40:40.726Z,3.35
2024-02-28T22:45:46.776Z,3.41
2024-02-28T22:50:49.652Z,3.39
2024-02-28T22:55:53.046Z,3.43
2024-02-28T23:00:57.307Z,3.39
2024-02-28T23:06:01.425Z,3.37
2024-02-28T23:11:04.489Z,3.31
2024-02-28T23:16:09.028Z,3.23
2024-02-28T23:21:11.870Z,3.16
2024-02-28T23:26:14.634Z,3.09
2024-02-28T23:31:22.414Z,3.13
2024-02-28T23:36:25.214Z,3.02
2024-02-28T23:41:29.794Z,2.98
2024-02-28T23:46:34.600Z,3.00
2024-02-28T23:51:37.402Z,3.02
2024-02-28T23:56:40.163Z,3.01
